sensor_id;sensor_type;location;lat;lon;timestamp;temperature;humidity
20481;DHT22;10399;50.754;3.366;2022-12-16T00:00:06;-0.40;99.90
20481;DHT22;10399;50.754;3.366;2022-12-16T00:02:35;-0.40;99.90
20481;DHT22;10399;50.754;3.366;2022-12-16T00:05:03;-0.70;99.90
20481;DHT22;10399;50.754;3.366;2022-12-16T00:07:31;-0.70;99.90
20481;DHT22;10399;50.754;3.366;2022-12-16T00:09:58;-0.60;99.90
20481;DHT22;10399;50.754;3.366;2022-12-16T00:12:25;-0.60;99.90
20481;DHT22;10399;50.754;3.366;2022-12-16T00:14:53;-0.60;99.90
20481;DHT22;10399;50.754;3.366;2022-12-16T00:17:21;-0.60;99.90
20481;DHT22;10399;50.754;3.366;2022-12-16T00:19:48;-0.60;99.90
20481;DHT22;10399;50.754;3.366;2022-12-16T00:22:16;-0.70;99.90
20481;DHT22;10399;50.754;3.366;2022-12-16T00:24:43;-0.70;99.90
20481;DHT22;10399;50.754;3.366;2022-12-16T00:27:10;-0.70;99.90
20481;DHT22;10399;50.754;3.366;2022-12-16T00:29:37;-0.70;99.90
20481;DHT22;10399;50.754;3.366;2022-12-16T00:32:04;-0.70;99.90
20481;DHT22;10399;50.754;3.366;2022-12-16T00:34:32;-0.70;99.90
20481;DHT22;10399;50.754;3.366;2022-12-16T00:36:59;-0.70;99.90
20481;DHT22;10399;50.754;3.366;2022-12-16T00:39:26;-0.80;99.90
20481;DHT22;10399;50.754;3.366;2022-12-16T00:41:53;-0.70;99.90
20481;DHT22;10399;50.754;3.366;2022-12-16T00:44:20;-0.90;99.90
20481;DHT22;10399;50.754;3.366;2022-12-16T00:46:48;-1.00;99.90
20481;DHT22;10399;50.754;3.366;2022-12-16T00:49:15;-1.00;99.90
20481;DHT22;10399;50.754;3.366;2022-12-16T00:51:42;-0.80;99.90
20481;DHT22;10399;50.754;3.366;2022-12-16T00:54:09;-0.90;99.90
20481;DHT22;10399;50.754;3.366;2022-12-16T00:56:36;-1.00;99.90
20481;DHT22;10399;50.754;3.366;2022-12-16T00:59:03;-1.00;99.90
20481;DHT22;10399;50.754;3.366;2022-12-16T01:01:31;-1.00;99.90
20481;DHT22;10399;50.754;3.366;2022-12-16T01:03:58;-1.00;99.90
20481;DHT22;10399;50.754;3.366;2022-12-16T01:06:26;-0.90;99.90
20481;DHT22;10399;50.754;3.366;2022-12-16T01:08:53;-1.00;99.90
20481;DHT22;10399;50.754;3.366;2022-12-16T01:11:20;-1.00;99.90
20481;DHT22;10399;50.754;3.366;2022-12-16T01:13:50;-1.00;99.90
20481;DHT22;10399;50.754;3.366;2022-12-16T01:16:20;-0.90;99.90
20481;DHT22;10399;50.754;3.366;2022-12-16T01:18:48;-0.90;99.90
20481;DHT22;10399;50.754;3.366;2022-12-16T01:21:15;-0.80;99.90
20481;DHT22;10399;50.754;3.366;2022-12-16T01:23:42;-0.90;99.90
20481;DHT22;10399;50.754;3.366;2022-12-16T01:26:15;-0.90;99.90
20481;DHT22;10399;50.754;3.366;2022-12-16T01:28:43;-1.00;99.90
20481;DHT22;10399;50.754;3.366;2022-12-16T01:31:10;-1.00;99.90
20481;DHT22;10399;50.754;3.366;2022-12-16T01:33:38;-1.10;99.90
20481;DHT22;10399;50.754;3.366;2022-12-16T01:36:06;-1.00;99.90
20481;DHT22;10399;50.754;3.366;2022-12-16T01:38:34;-0.90;99.90
20481;DHT22;10399;50.754;3.366;2022-12-16T01:41:02;-1.00;99.90
20481;DHT22;10399;50.754;3.366;2022-12-16T01:43:35;-0.60;99.90
20481;DHT22;10399;50.754;3.366;2022-12-16T01:48:58;-0.60;99.90
20481;DHT22;10399;50.754;3.366;2022-12-16T01:51:33;-0.50;99.90
20481;DHT22;10399;50.754;3.366;2022-12-16T01:54:09;-0.80;99.90
20481;DHT22;10399;50.754;3.366;2022-12-16T01:56:42;-0.70;99.90
20481;DHT22;10399;50.754;3.366;2022-12-16T01:59:15;-0.70;99.90
20481;DHT22;10399;50.754;3.366;2022-12-16T02:01:43;-0.80;99.90
20481;DHT22;10399;50.754;3.366;2022-12-16T02:04:10;-0.90;99.90
20481;DHT22;10399;50.754;3.366;2022-12-16T02:06:37;-1.10;99.90
20481;DHT22;10399;50.754;3.366;2022-12-16T02:09:06;-1.10;99.90
20481;DHT22;10399;50.754;3.366;2022-12-16T02:39:13;-0.90;99.90
20481;DHT22;10399;50.754;3.366;2022-12-16T02:42:01;-1.00;99.90
20481;DHT22;10399;50.754;3.366;2022-12-16T02:44:56;-1.10;99.90
20481;DHT22;10399;50.754;3.366;2022-12-16T02:47:25;-1.20;99.90
20481;DHT22;10399;50.754;3.366;2022-12-16T02:49:53;-1.10;99.90
20481;DHT22;10399;50.754;3.366;2022-12-16T02:52:26;-1.10;99.90
20481;DHT22;10399;50.754;3.366;2022-12-16T02:55:04;-1.10;99.90
20481;DHT22;10399;50.754;3.366;2022-12-16T03:00:23;-1.10;99.90
20481;DHT22;10399;50.754;3.366;2022-12-16T03:03:17;-1.10;99.90
20481;DHT22;10399;50.754;3.366;2022-12-16T03:05:50;-1.20;99.90
20481;DHT22;10399;50.754;3.366;2022-12-16T03:08:29;-1.40;99.90
20481;DHT22;10399;50.754;3.366;2022-12-16T03:11:00;-1.70;99.90
20481;DHT22;10399;50.754;3.366;2022-12-16T03:13:50;-1.70;99.90
20481;DHT22;10399;50.754;3.366;2022-12-16T03:16:21;-1.70;99.90
20481;DHT22;10399;50.754;3.366;2022-12-16T03:18:55;-1.60;99.90
20481;DHT22;10399;50.754;3.366;2022-12-16T03:21:28;-1.40;99.90
20481;DHT22;10399;50.754;3.366;2022-12-16T03:24:00;-1.30;99.90
20481;DHT22;10399;50.754;3.366;2022-12-16T03:26:41;-1.30;99.90
20481;DHT22;10399;50.754;3.366;2022-12-16T03:29:15;-1.40;99.90
20481;DHT22;10399;50.754;3.366;2022-12-16T03:31:57;-1.40;99.90
20481;DHT22;10399;50.754;3.366;2022-12-16T03:34:42;-1.40;99.90
20481;DHT22;10399;50.754;3.366;2022-12-16T03:37:11;-1.60;99.90
20481;DHT22;10399;50.754;3.366;2022-12-16T03:39:45;-1.50;99.90
20481;DHT22;10399;50.754;3.366;2022-12-16T03:42:14;-1.40;99.90
20481;DHT22;10399;50.754;3.366;2022-12-16T03:44:46;-1.50;99.90
20481;DHT22;10399;50.754;3.366;2022-12-16T03:47:16;-1.50;99.90
20481;DHT22;10399;50.754;3.366;2022-12-16T03:49:49;-1.60;99.90
20481;DHT22;10399;50.754;3.366;2022-12-16T03:52:20;-1.50;99.90
20481;DHT22;10399;50.754;3.366;2022-12-16T03:54:47;-1.30;99.90
20481;DHT22;10399;50.754;3.366;2022-12-16T03:57:15;-0.90;99.90
20481;DHT22;10399;50.754;3.366;2022-12-16T03:59:43;-1.10;99.90
20481;DHT22;10399;50.754;3.366;2022-12-16T04:02:10;-1.10;99.90
20481;DHT22;10399;50.754;3.366;2022-12-16T04:04:40;-1.30;99.90
20481;DHT22;10399;50.754;3.366;2022-12-16T04:07:07;-1.40;99.90
20481;DHT22;10399;50.754;3.366;2022-12-16T04:09:47;-1.40;99.90
20481;DHT22;10399;50.754;3.366;2022-12-16T04:12:20;-1.50;99.90
20481;DHT22;10399;50.754;3.366;2022-12-16T04:15:06;-1.50;99.90
20481;DHT22;10399;50.754;3.366;2022-12-16T04:17:52;-1.40;99.90
20481;DHT22;10399;50.754;3.366;2022-12-16T04:20:42;-1.50;99.90
20481;DHT22;10399;50.754;3.366;2022-12-16T04:23:30;-1.60;99.90
20481;DHT22;10399;50.754;3.366;2022-12-16T04:26:19;-1.60;99.90
20481;DHT22;10399;50.754;3.366;2022-12-16T04:28:47;-1.60;99.90
20481;DHT22;10399;50.754;3.366;2022-12-16T04:31:14;-1.50;99.90
20481;DHT22;10399;50.754;3.366;2022-12-16T04:33:41;-1.50;99.90
20481;DHT22;10399;50.754;3.366;2022-12-16T04:36:35;-1.50;99.90
20481;DHT22;10399;50.754;3.366;2022-12-16T04:39:20;-1.60;99.90
20481;DHT22;10399;50.754;3.366;2022-12-16T04:42:06;-1.60;99.90
20481;DHT22;10399;50.754;3.366;2022-12-16T04:44:52;-1.50;99.90
20481;DHT22;10399;50.754;3.366;2022-12-16T04:47:37;-1.40;99.90
20481;DHT22;10399;50.754;3.366;2022-12-16T04:50:23;-1.20;99.90
20481;DHT22;10399;50.754;3.366;2022-12-16T04:53:09;-1.20;99.90
20481;DHT22;10399;50.754;3.366;2022-12-16T04:55:55;-1.10;99.90
20481;DHT22;10399;50.754;3.366;2022-12-16T04:58:40;-0.80;99.90
20481;DHT22;10399;50.754;3.366;2022-12-16T05:01:26;-0.70;99.90
20481;DHT22;10399;50.754;3.366;2022-12-16T05:04:12;-0.70;99.90
20481;DHT22;10399;50.754;3.366;2022-12-16T05:06:57;-0.50;99.90
20481;DHT22;10399;50.754;3.366;2022-12-16T05:09:43;-0.60;99.90
20481;DHT22;10399;50.754;3.366;2022-12-16T05:12:29;-1.00;99.90
20481;DHT22;10399;50.754;3.366;2022-12-16T05:15:14;-1.00;99.90
20481;DHT22;10399;50.754;3.366;2022-12-16T05:18:10;-1.20;99.90
20481;DHT22;10399;50.754;3.366;2022-12-16T05:21:01;-1.30;99.90
20481;DHT22;10399;50.754;3.366;2022-12-16T05:23:47;-1.40;99.90
20481;DHT22;10399;50.754;3.366;2022-12-16T05:26:33;-1.40;99.90
20481;DHT22;10399;50.754;3.366;2022-12-16T05:29:20;-1.50;99.90
20481;DHT22;10399;50.754;3.366;2022-12-16T05:32:06;-1.50;99.90
20481;DHT22;10399;50.754;3.366;2022-12-16T05:34:52;-1.60;99.90
20481;DHT22;10399;50.754;3.366;2022-12-16T05:37:37;-1.60;99.90
20481;DHT22;10399;50.754;3.366;2022-12-16T05:40:23;-1.70;99.90
20481;DHT22;10399;50.754;3.366;2022-12-16T05:43:08;-1.60;99.90
20481;DHT22;10399;50.754;3.366;2022-12-16T05:45:54;-1.50;99.90
20481;DHT22;10399;50.754;3.366;2022-12-16T05:48:40;-1.50;99.90
20481;DHT22;10399;50.754;3.366;2022-12-16T05:51:26;-1.60;99.90
20481;DHT22;10399;50.754;3.366;2022-12-16T05:54:11;-1.60;99.90
20481;DHT22;10399;50.754;3.366;2022-12-16T05:56:57;-1.60;99.90
20481;DHT22;10399;50.754;3.366;2022-12-16T05:59:43;-1.50;99.90
20481;DHT22;10399;50.754;3.366;2022-12-16T06:02:28;-1.50;99.90
20481;DHT22;10399;50.754;3.366;2022-12-16T06:05:14;-1.50;99.90
20481;DHT22;10399;50.754;3.366;2022-12-16T06:08:00;-1.30;99.90
20481;DHT22;10399;50.754;3.366;2022-12-16T06:10:48;-1.30;99.90
20481;DHT22;10399;50.754;3.366;2022-12-16T06:13:34;-1.30;99.90
20481;DHT22;10399;50.754;3.366;2022-12-16T06:16:20;-1.30;99.90
20481;DHT22;10399;50.754;3.366;2022-12-16T06:19:07;-1.20;99.90
20481;DHT22;10399;50.754;3.366;2022-12-16T06:24:52;-1.10;99.90
20481;DHT22;10399;50.754;3.366;2022-12-16T06:27:41;-0.90;99.90
20481;DHT22;10399;50.754;3.366;2022-12-16T06:30:26;-0.70;99.90
20481;DHT22;10399;50.754;3.366;2022-12-16T06:33:12;-1.10;99.90
20481;DHT22;10399;50.754;3.366;2022-12-16T06:36:01;-1.20;99.90
20481;DHT22;10399;50.754;3.366;2022-12-16T06:38:46;-1.10;99.90
20481;DHT22;10399;50.754;3.366;2022-12-16T06:41:32;-1.10;99.90
20481;DHT22;10399;50.754;3.366;2022-12-16T06:44:17;-1.00;99.90
20481;DHT22;10399;50.754;3.366;2022-12-16T06:47:03;-1.20;99.90
20481;DHT22;10399;50.754;3.366;2022-12-16T06:49:48;-1.20;99.90
20481;DHT22;10399;50.754;3.366;2022-12-16T06:52:34;-1.20;99.90
20481;DHT22;10399;50.754;3.366;2022-12-16T06:55:20;-1.30;99.90
20481;DHT22;10399;50.754;3.366;2022-12-16T06:58:05;-1.30;99.90
20481;DHT22;10399;50.754;3.366;2022-12-16T07:00:51;-1.30;99.90
20481;DHT22;10399;50.754;3.366;2022-12-16T07:03:36;-1.30;99.90
20481;DHT22;10399;50.754;3.366;2022-12-16T07:06:22;-1.20;99.90
20481;DHT22;10399;50.754;3.366;2022-12-16T07:09:08;-1.20;99.90
20481;DHT22;10399;50.754;3.366;2022-12-16T07:11:54;-1.30;99.90
20481;DHT22;10399;50.754;3.366;2022-12-16T07:14:39;-1.40;99.90
20481;DHT22;10399;50.754;3.366;2022-12-16T07:17:28;-1.30;99.90
20481;DHT22;10399;50.754;3.366;2022-12-16T07:20:25;-1.20;99.90
20481;DHT22;10399;50.754;3.366;2022-12-16T07:23:14;-1.20;99.90
20481;DHT22;10399;50.754;3.366;2022-12-16T07:26:00;-1.00;99.90
20481;DHT22;10399;50.754;3.366;2022-12-16T07:28:46;-1.00;99.90
20481;DHT22;10399;50.754;3.366;2022-12-16T07:31:32;-1.10;99.90
20481;DHT22;10399;50.754;3.366;2022-12-16T07:34:18;-1.10;99.90
20481;DHT22;10399;50.754;3.366;2022-12-16T07:37:09;-1.00;99.90
20481;DHT22;10399;50.754;3.366;2022-12-16T07:39:58;-1.10;99.90
20481;DHT22;10399;50.754;3.366;2022-12-16T07:42:47;-1.00;99.90
20481;DHT22;10399;50.754;3.366;2022-12-16T07:45:33;-1.00;99.90
20481;DHT22;10399;50.754;3.366;2022-12-16T07:48:28;-0.80;99.90
20481;DHT22;10399;50.754;3.366;2022-12-16T07:51:16;-0.60;99.90
20481;DHT22;10399;50.754;3.366;2022-12-16T07:54:02;-0.50;99.90
20481;DHT22;10399;50.754;3.366;2022-12-16T07:56:48;-0.40;99.90
20481;DHT22;10399;50.754;3.366;2022-12-16T07:59:33;-0.30;99.90
20481;DHT22;10399;50.754;3.366;2022-12-16T08:02:19;-0.10;99.90
20481;DHT22;10399;50.754;3.366;2022-12-16T08:05:05;-0.10;99.90
20481;DHT22;10399;50.754;3.366;2022-12-16T08:07:51;0.00;99.90
20481;DHT22;10399;50.754;3.366;2022-12-16T08:10:37;0.10;99.90
20481;DHT22;10399;50.754;3.366;2022-12-16T08:13:22;0.10;99.90
20481;DHT22;10399;50.754;3.366;2022-12-16T08:16:08;0.20;99.90
20481;DHT22;10399;50.754;3.366;2022-12-16T08:18:54;0.30;99.90
20481;DHT22;10399;50.754;3.366;2022-12-16T08:21:39;0.30;99.90
20481;DHT22;10399;50.754;3.366;2022-12-16T08:24:25;0.30;99.90
20481;DHT22;10399;50.754;3.366;2022-12-16T08:27:18;0.40;99.90
20481;DHT22;10399;50.754;3.366;2022-12-16T08:30:04;0.40;99.90
20481;DHT22;10399;50.754;3.366;2022-12-16T08:32:50;0.50;99.90
20481;DHT22;10399;50.754;3.366;2022-12-16T08:35:45;0.50;99.90
20481;DHT22;10399;50.754;3.366;2022-12-16T08:38:30;0.60;99.90
20481;DHT22;10399;50.754;3.366;2022-12-16T08:41:16;0.60;99.90
20481;DHT22;10399;50.754;3.366;2022-12-16T08:44:02;0.70;99.90
20481;DHT22;10399;50.754;3.366;2022-12-16T08:46:47;0.70;99.90
20481;DHT22;10399;50.754;3.366;2022-12-16T08:49:33;0.90;99.90
20481;DHT22;10399;50.754;3.366;2022-12-16T08:52:25;1.30;99.90
20481;DHT22;10399;50.754;3.366;2022-12-16T08:55:10;1.70;99.90
20481;DHT22;10399;50.754;3.366;2022-12-16T08:57:56;1.90;99.90
20481;DHT22;10399;50.754;3.366;2022-12-16T09:00:42;2.00;99.90
20481;DHT22;10399;50.754;3.366;2022-12-16T09:03:32;2.10;99.90
20481;DHT22;10399;50.754;3.366;2022-12-16T09:06:18;2.60;99.90
20481;DHT22;10399;50.754;3.366;2022-12-16T09:09:07;2.60;99.90
20481;DHT22;10399;50.754;3.366;2022-12-16T09:11:53;2.50;99.90
20481;DHT22;10399;50.754;3.366;2022-12-16T09:14:38;2.30;99.90
20481;DHT22;10399;50.754;3.366;2022-12-16T09:17:24;2.20;99.90
20481;DHT22;10399;50.754;3.366;2022-12-16T09:20:10;2.10;99.90
20481;DHT22;10399;50.754;3.366;2022-12-16T09:22:55;2.10;99.90
20481;DHT22;10399;50.754;3.366;2022-12-16T09:25:54;2.20;99.90
20481;DHT22;10399;50.754;3.366;2022-12-16T09:28:40;2.30;99.90
20481;DHT22;10399;50.754;3.366;2022-12-16T09:31:25;2.30;99.90
20481;DHT22;10399;50.754;3.366;2022-12-16T09:34:11;2.40;99.90
20481;DHT22;10399;50.754;3.366;2022-12-16T09:36:56;2.50;99.90
20481;DHT22;10399;50.754;3.366;2022-12-16T09:39:42;2.80;99.90
20481;DHT22;10399;50.754;3.366;2022-12-16T09:48:47;3.50;99.90
20481;DHT22;10399;50.754;3.366;2022-12-16T09:51:36;3.80;99.90
20481;DHT22;10399;50.754;3.366;2022-12-16T09:54:25;3.90;99.90
20481;DHT22;10399;50.754;3.366;2022-12-16T09:57:12;4.10;99.90
20481;DHT22;10399;50.754;3.366;2022-12-16T10:00:03;4.30;99.90
20481;DHT22;10399;50.754;3.366;2022-12-16T10:02:49;4.40;99.90
20481;DHT22;10399;50.754;3.366;2022-12-16T10:05:46;4.70;99.90
20481;DHT22;10399;50.754;3.366;2022-12-16T10:11:23;5.20;99.90
20481;DHT22;10399;50.754;3.366;2022-12-16T10:14:22;5.30;99.90
20481;DHT22;10399;50.754;3.366;2022-12-16T10:17:21;5.60;99.90
20481;DHT22;10399;50.754;3.366;2022-12-16T10:29:19;6.20;99.90
20481;DHT22;10399;50.754;3.366;2022-12-16T10:32:41;6.50;99.90
20481;DHT22;10399;50.754;3.366;2022-12-16T10:38:43;6.90;99.90
20481;DHT22;10399;50.754;3.366;2022-12-16T10:41:33;7.20;99.90
20481;DHT22;10399;50.754;3.366;2022-12-16T10:44:32;7.30;99.90
20481;DHT22;10399;50.754;3.366;2022-12-16T10:47:21;7.20;99.90
20481;DHT22;10399;50.754;3.366;2022-12-16T10:50:11;7.30;99.90
20481;DHT22;10399;50.754;3.366;2022-12-16T10:52:58;7.50;99.90
20481;DHT22;10399;50.754;3.366;2022-12-16T10:55:54;7.80;99.90
20481;DHT22;10399;50.754;3.366;2022-12-16T10:58:53;8.00;99.90
20481;DHT22;10399;50.754;3.366;2022-12-16T11:01:40;8.10;99.90
20481;DHT22;10399;50.754;3.366;2022-12-16T11:08:08;7.60;99.90
20481;DHT22;10399;50.754;3.366;2022-12-16T11:10:40;7.40;99.90
20481;DHT22;10399;50.754;3.366;2022-12-16T11:13:32;7.10;99.90
20481;DHT22;10399;50.754;3.366;2022-12-16T11:16:23;7.30;99.90
20481;DHT22;10399;50.754;3.366;2022-12-16T11:19:24;7.20;99.90
20481;DHT22;10399;50.754;3.366;2022-12-16T11:25:16;6.80;99.90
20481;DHT22;10399;50.754;3.366;2022-12-16T11:28:13;6.80;99.90
20481;DHT22;10399;50.754;3.366;2022-12-16T11:31:05;6.70;99.90
20481;DHT22;10399;50.754;3.366;2022-12-16T11:33:53;6.60;99.90
20481;DHT22;10399;50.754;3.366;2022-12-16T11:36:40;6.50;99.90
20481;DHT22;10399;50.754;3.366;2022-12-16T11:39:31;6.20;99.90
20481;DHT22;10399;50.754;3.366;2022-12-16T11:42:23;6.30;99.90
20481;DHT22;10399;50.754;3.366;2022-12-16T11:45:15;6.20;99.90
20481;DHT22;10399;50.754;3.366;2022-12-16T11:51:14;6.10;99.90
20481;DHT22;10399;50.754;3.366;2022-12-16T11:54:49;6.00;99.90
20481;DHT22;10399;50.754;3.366;2022-12-16T11:58:13;6.00;99.90
20481;DHT22;10399;50.754;3.366;2022-12-16T12:01:17;5.90;99.90
20481;DHT22;10399;50.754;3.366;2022-12-16T12:04:11;6.10;99.90
20481;DHT22;10399;50.754;3.366;2022-12-16T12:10:00;6.40;99.90
20481;DHT22;10399;50.754;3.366;2022-12-16T12:13:20;6.60;99.90
20481;DHT22;10399;50.754;3.366;2022-12-16T12:22:47;8.00;99.90
20481;DHT22;10399;50.754;3.366;2022-12-16T12:25:46;8.30;99.90
20481;DHT22;10399;50.754;3.366;2022-12-16T12:38:29;9.50;99.90
20481;DHT22;10399;50.754;3.366;2022-12-16T12:41:27;9.80;99.90
20481;DHT22;10399;50.754;3.366;2022-12-16T12:47:15;10.10;99.90
20481;DHT22;10399;50.754;3.366;2022-12-16T12:59:54;9.40;99.90
20481;DHT22;10399;50.754;3.366;2022-12-16T13:02:59;9.40;99.90
20481;DHT22;10399;50.754;3.366;2022-12-16T13:05:47;9.40;99.90
20481;DHT22;10399;50.754;3.366;2022-12-16T13:11:36;9.50;99.90
20481;DHT22;10399;50.754;3.366;2022-12-16T13:17:20;10.10;99.90
20481;DHT22;10399;50.754;3.366;2022-12-16T13:23:36;9.90;99.90
20481;DHT22;10399;50.754;3.366;2022-12-16T13:26:24;9.70;99.90
20481;DHT22;10399;50.754;3.366;2022-12-16T13:34:59;8.70;99.90
20481;DHT22;10399;50.754;3.366;2022-12-16T13:38:00;8.70;99.90
20481;DHT22;10399;50.754;3.366;2022-12-16T13:44:12;9.00;99.90
20481;DHT22;10399;50.754;3.366;2022-12-16T13:50:43;9.70;99.90
20481;DHT22;10399;50.754;3.366;2022-12-16T13:56:47;9.60;99.90
20481;DHT22;10399;50.754;3.366;2022-12-16T13:59:36;9.50;99.90
20481;DHT22;10399;50.754;3.366;2022-12-16T14:05:28;9.60;99.90
20481;DHT22;10399;50.754;3.366;2022-12-16T14:08:17;9.80;99.90
20481;DHT22;10399;50.754;3.366;2022-12-16T14:11:05;9.40;99.90
20481;DHT22;10399;50.754;3.366;2022-12-16T14:25:37;9.60;99.90
20481;DHT22;10399;50.754;3.366;2022-12-16T14:28:38;9.40;99.90
20481;DHT22;10399;50.754;3.366;2022-12-16T14:34:31;9.70;99.90
20481;DHT22;10399;50.754;3.366;2022-12-16T14:40:17;9.50;99.90
20481;DHT22;10399;50.754;3.366;2022-12-16T14:43:13;9.30;99.90
20481;DHT22;10399;50.754;3.366;2022-12-16T14:46:00;9.10;99.90
20481;DHT22;10399;50.754;3.366;2022-12-16T14:48:47;9.00;99.90
20481;DHT22;10399;50.754;3.366;2022-12-16T14:51:44;8.90;99.90
20481;DHT22;10399;50.754;3.366;2022-12-16T14:54:42;8.60;99.90
20481;DHT22;10399;50.754;3.366;2022-12-16T14:58:24;8.20;99.90
20481;DHT22;10399;50.754;3.366;2022-12-16T15:01:21;8.00;99.90
20481;DHT22;10399;50.754;3.366;2022-12-16T15:04:19;7.70;99.90
20481;DHT22;10399;50.754;3.366;2022-12-16T15:07:07;7.60;99.90
20481;DHT22;10399;50.754;3.366;2022-12-16T15:09:58;7.20;99.90
20481;DHT22;10399;50.754;3.366;2022-12-16T15:12:46;7.10;99.90
20481;DHT22;10399;50.754;3.366;2022-12-16T15:15:44;6.70;99.90
20481;DHT22;10399;50.754;3.366;2022-12-16T15:18:37;6.50;99.90
20481;DHT22;10399;50.754;3.366;2022-12-16T15:21:23;6.30;99.90
20481;DHT22;10399;50.754;3.366;2022-12-16T15:24:12;6.10;99.90
20481;DHT22;10399;50.754;3.366;2022-12-16T15:33:19;5.50;99.90
20481;DHT22;10399;50.754;3.366;2022-12-16T15:36:05;5.30;99.90
20481;DHT22;10399;50.754;3.366;2022-12-16T15:38:57;5.20;99.90
20481;DHT22;10399;50.754;3.366;2022-12-16T15:41:46;5.10;99.90
20481;DHT22;10399;50.754;3.366;2022-12-16T15:44:32;5.00;99.90
20481;DHT22;10399;50.754;3.366;2022-12-16T15:47:33;4.80;99.90
20481;DHT22;10399;50.754;3.366;2022-12-16T15:50:33;4.60;99.90
20481;DHT22;10399;50.754;3.366;2022-12-16T15:53:35;4.50;99.90
20481;DHT22;10399;50.754;3.366;2022-12-16T15:56:31;4.40;99.90
20481;DHT22;10399;50.754;3.366;2022-12-16T16:02:23;4.20;99.90
20481;DHT22;10399;50.754;3.366;2022-12-16T16:05:11;4.00;99.90
20481;DHT22;10399;50.754;3.366;2022-12-16T16:07:57;4.10;99.90
20481;DHT22;10399;50.754;3.366;2022-12-16T16:10:43;3.90;99.90
20481;DHT22;10399;50.754;3.366;2022-12-16T16:13:29;3.90;99.90
20481;DHT22;10399;50.754;3.366;2022-12-16T16:16:15;3.80;99.90
20481;DHT22;10399;50.754;3.366;2022-12-16T16:19:01;3.70;99.90
20481;DHT22;10399;50.754;3.366;2022-12-16T16:21:47;3.60;99.90
20481;DHT22;10399;50.754;3.366;2022-12-16T16:24:33;3.60;99.90
20481;DHT22;10399;50.754;3.366;2022-12-16T16:27:19;3.50;99.90
20481;DHT22;10399;50.754;3.366;2022-12-16T16:30:05;3.40;99.90
20481;DHT22;10399;50.754;3.366;2022-12-16T16:32:50;3.30;99.90
20481;DHT22;10399;50.754;3.366;2022-12-16T16:35:36;3.30;99.90
20481;DHT22;10399;50.754;3.366;2022-12-16T16:38:24;3.20;99.90
20481;DHT22;10399;50.754;3.366;2022-12-16T16:41:14;3.00;99.90
20481;DHT22;10399;50.754;3.366;2022-12-16T16:44:00;2.90;99.90
20481;DHT22;10399;50.754;3.366;2022-12-16T16:46:46;2.90;99.90
20481;DHT22;10399;50.754;3.366;2022-12-16T16:49:43;2.80;99.90
20481;DHT22;10399;50.754;3.366;2022-12-16T16:52:31;2.90;99.90
20481;DHT22;10399;50.754;3.366;2022-12-16T16:55:22;3.00;99.90
20481;DHT22;10399;50.754;3.366;2022-12-16T16:58:28;3.00;99.90
20481;DHT22;10399;50.754;3.366;2022-12-16T17:01:16;3.20;99.90
20481;DHT22;10399;50.754;3.366;2022-12-16T17:04:02;3.10;99.90
20481;DHT22;10399;50.754;3.366;2022-12-16T17:06:48;3.00;99.90
20481;DHT22;10399;50.754;3.366;2022-12-16T17:09:34;2.90;99.90
20481;DHT22;10399;50.754;3.366;2022-12-16T17:12:30;2.90;99.90
20481;DHT22;10399;50.754;3.366;2022-12-16T17:15:24;2.80;99.90
20481;DHT22;10399;50.754;3.366;2022-12-16T17:18:09;2.80;99.90
20481;DHT22;10399;50.754;3.366;2022-12-16T17:20:55;2.80;99.90
20481;DHT22;10399;50.754;3.366;2022-12-16T17:23:41;2.80;99.90
20481;DHT22;10399;50.754;3.366;2022-12-16T17:26:26;2.70;99.90
20481;DHT22;10399;50.754;3.366;2022-12-16T17:29:22;2.80;99.90
20481;DHT22;10399;50.754;3.366;2022-12-16T17:32:09;2.70;99.90
20481;DHT22;10399;50.754;3.366;2022-12-16T17:34:55;2.70;99.90
20481;DHT22;10399;50.754;3.366;2022-12-16T17:37:41;2.60;99.90
20481;DHT22;10399;50.754;3.366;2022-12-16T17:40:27;2.70;99.90
20481;DHT22;10399;50.754;3.366;2022-12-16T17:43:13;2.70;99.90
20481;DHT22;10399;50.754;3.366;2022-12-16T17:46:08;2.80;99.90
20481;DHT22;10399;50.754;3.366;2022-12-16T17:48:57;2.60;99.90
20481;DHT22;10399;50.754;3.366;2022-12-16T17:51:45;2.50;99.90
20481;DHT22;10399;50.754;3.366;2022-12-16T17:54:30;2.50;99.90
20481;DHT22;10399;50.754;3.366;2022-12-16T17:57:16;2.50;99.90
20481;DHT22;10399;50.754;3.366;2022-12-16T18:00:05;2.40;99.90
20481;DHT22;10399;50.754;3.366;2022-12-16T18:02:51;2.40;99.90
20481;DHT22;10399;50.754;3.366;2022-12-16T18:05:40;2.20;99.90
20481;DHT22;10399;50.754;3.366;2022-12-16T18:08:26;2.00;99.90
20481;DHT22;10399;50.754;3.366;2022-12-16T18:11:14;2.10;99.90
20481;DHT22;10399;50.754;3.366;2022-12-16T18:14:13;2.00;99.90
20481;DHT22;10399;50.754;3.366;2022-12-16T18:17:00;1.90;99.90
20481;DHT22;10399;50.754;3.366;2022-12-16T18:19:46;1.80;99.90
20481;DHT22;10399;50.754;3.366;2022-12-16T18:22:52;1.90;99.90
20481;DHT22;10399;50.754;3.366;2022-12-16T18:25:38;1.80;99.90
20481;DHT22;10399;50.754;3.366;2022-12-16T18:28:24;1.80;99.90
20481;DHT22;10399;50.754;3.366;2022-12-16T18:31:10;1.90;99.90
20481;DHT22;10399;50.754;3.366;2022-12-16T18:33:56;1.70;99.90
20481;DHT22;10399;50.754;3.366;2022-12-16T18:36:44;1.70;99.90
20481;DHT22;10399;50.754;3.366;2022-12-16T18:39:30;1.80;99.90
20481;DHT22;10399;50.754;3.366;2022-12-16T18:42:19;1.70;99.90
20481;DHT22;10399;50.754;3.366;2022-12-16T18:45:05;1.50;99.90
20481;DHT22;10399;50.754;3.366;2022-12-16T18:47:51;1.50;99.90
20481;DHT22;10399;50.754;3.366;2022-12-16T18:50:37;1.50;99.90
20481;DHT22;10399;50.754;3.366;2022-12-16T18:53:25;1.40;99.90
20481;DHT22;10399;50.754;3.366;2022-12-16T18:56:12;1.50;99.90
20481;DHT22;10399;50.754;3.366;2022-12-16T18:58:58;1.50;99.90
20481;DHT22;10399;50.754;3.366;2022-12-16T19:01:44;1.50;99.90
20481;DHT22;10399;50.754;3.366;2022-12-16T19:04:30;1.40;99.90
20481;DHT22;10399;50.754;3.366;2022-12-16T19:07:15;1.40;99.90
20481;DHT22;10399;50.754;3.366;2022-12-16T19:10:01;1.40;99.90
20481;DHT22;10399;50.754;3.366;2022-12-16T19:12:47;1.40;99.90
20481;DHT22;10399;50.754;3.366;2022-12-16T19:15:33;1.40;99.90
20481;DHT22;10399;50.754;3.366;2022-12-16T19:18:21;1.30;99.90
20481;DHT22;10399;50.754;3.366;2022-12-16T19:21:08;1.50;99.90
20481;DHT22;10399;50.754;3.366;2022-12-16T19:23:54;1.50;99.90
20481;DHT22;10399;50.754;3.366;2022-12-16T19:26:40;1.30;99.90
20481;DHT22;10399;50.754;3.366;2022-12-16T19:29:29;1.20;99.90
20481;DHT22;10399;50.754;3.366;2022-12-16T19:32:21;1.00;99.90
20481;DHT22;10399;50.754;3.366;2022-12-16T19:35:07;1.00;99.90
20481;DHT22;10399;50.754;3.366;2022-12-16T19:37:53;0.90;99.90
20481;DHT22;10399;50.754;3.366;2022-12-16T19:40:38;1.00;99.90
20481;DHT22;10399;50.754;3.366;2022-12-16T19:43:24;0.90;99.90
20481;DHT22;10399;50.754;3.366;2022-12-16T19:46:12;0.90;99.90
20481;DHT22;10399;50.754;3.366;2022-12-16T19:49:05;1.00;99.90
20481;DHT22;10399;50.754;3.366;2022-12-16T19:52:25;1.20;99.90
20481;DHT22;10399;50.754;3.366;2022-12-16T19:55:11;1.00;99.90
20481;DHT22;10399;50.754;3.366;2022-12-16T19:58:00;0.90;99.90
20481;DHT22;10399;50.754;3.366;2022-12-16T20:00:46;0.80;99.90
20481;DHT22;10399;50.754;3.366;2022-12-16T20:03:31;0.80;99.90
20481;DHT22;10399;50.754;3.366;2022-12-16T20:06:22;0.70;99.90